aviador You're here:

OIKB Decoded Metar

BANDAR ABBAS in IRAN
Report Time2018-01-16 07:00:00
UTC Time2018-01-16 07:17:10
Flight Rules ifr IFR
Wind100° at 04 kt
W.Decomp.*RWY 03: 1.4 kt HW 3.7 kt RCW
W.Rank100° ranks 25
Current wind is below 100° avg. (6.2)
Visibility4000 m
Phenomena:Haze
Clouds:N/A
Expected CloudBase > 2,400 ft AGL from Temp-Dew spread
CeilingNone
Temp22°C (ISA +7)
Dew Point16°C (69% RH)
QNH1016 hPa
Density Alt997 ft
Elevation33 ft
Report Wrong Elevation
Raw Report
METAR OIKB 160700Z 10004KT 4000 HZ NSC 22/16 Q1016 A3000 NOSIG=

Extra information for OIKB:More info

Metar Taf Metar & Taf Last 4 Metars F.Rules Stats Wind Profile Meteogram Temp Stats Airport Information Weather charts Add Link Nearby VenuesMetar ALERT Operation Metar Decoded Social comments